Wetterstation Vordersexau
Wetterdaten: Woche 12.12.16 - 18.12.16 (KW50)
Datum Zeit Temp. A. Feuchte A. Luftdruck Regen Wind Richtung Taupunkt Windchill Windben
12.12.2016 00:00 1,3 C 84 % 1022,6 hPa 0,0 l/m 0,0 km/h O-NO -1,1 C 1,3 C 0,0 km/h
12.12.2016 01:00 1,6 C 84 % 1023,2 hPa 0,0 l/m 0,0 km/h O-NO -0,8 C 1,6 C 0,0 km/h
12.12.2016 02:00 2,2 C 83 % 1023,3 hPa 0,0 l/m 0,0 km/h O-NO -0,4 C 2,2 C 0,0 km/h
12.12.2016 03:00 2,3 C 83 % 1023,3 hPa 0,0 l/m 0,0 km/h O-NO -0,3 C 2,3 C 0,0 km/h
12.12.2016 04:00 2,3 C 82 % 1023,1 hPa 0,0 l/m 0,0 km/h O-NO -0,4 C 2,3 C 0,0 km/h
12.12.2016 05:00 0,5 C 83 % 1023,2 hPa 0,0 l/m 0,0 km/h O-NO -2,0 C 0,5 C 0,0 km/h
12.12.2016 06:00 -0,2 C 83 % 1023,6 hPa 0,0 l/m 0,0 km/h O-NO -2,7 C -0,2 C 0,0 km/h
12.12.2016 07:00 -0,2 C 83 % 1023,8 hPa 0,0 l/m 0,0 km/h O-NO -2,7 C -0,2 C 0,0 km/h
12.12.2016 08:00 -0,8 C 82 % 1024,2 hPa 0,0 l/m 0,0 km/h O-NO -3,5 C -0,8 C 0,0 km/h
12.12.2016 09:00 3,1 C 76 % 1024,5 hPa 0,0 l/m 0,0 km/h O-SO -0,7 C 3,1 C 0,0 km/h
12.12.2016 10:00 7,5 C 85 % 1024,9 hPa 0,0 l/m 0,0 km/h NO 5,1 C 7,5 C 0,0 km/h
12.12.2016 11:00 11,2 C 77 % 1024,3 hPa 0,0 l/m 0,0 km/h N-NO 7,3 C 11,2 C 0,0 km/h
12.12.2016 12:00 12,8 C 65 % 1024,2 hPa 0,0 l/m 0,0 km/h W 6,4 C 12,8 C 0,0 km/h
12.12.2016 13:00 11,6 C 65 % 1023,4 hPa 0,0 l/m 0,0 km/h W 5,2 C 11,6 C 0,0 km/h
12.12.2016 14:00 11,6 C 65 % 1023,3 hPa 0,0 l/m 2,6 km/h W-SW 5,2 C 11,6 C 1,4 km/h
12.12.2016 15:00 11,6 C 64 % 1023,2 hPa 0,0 l/m 0,0 km/h W-SW 5,0 C 11,6 C 0,0 km/h
12.12.2016 16:00 6,9 C 73 % 1023,6 hPa 0,0 l/m 0,0 km/h W-SW 2,4 C 6,9 C 0,0 km/h
12.12.2016 17:00 2,8 C 81 % 1023,8 hPa 0,0 l/m 0,0 km/h W-SW -0,1 C 2,8 C 0,0 km/h
12.12.2016 18:00 1,9 C 84 % 1023,8 hPa 0,0 l/m 0,0 km/h SW -0,5 C 1,9 C 0,0 km/h
12.12.2016 19:00 0,6 C 85 % 1024,0 hPa 0,0 l/m 0,0 km/h W-SW -1,6 C 0,6 C 0,0 km/h
12.12.2016 20:00 -0,1 C 86 % 1023,7 hPa 0,0 l/m 0,0 km/h W -2,2 C -0,1 C 0,0 km/h
12.12.2016 21:00 -0,5 C 86 % 1023,8 hPa 0,0 l/m 0,0 km/h W -2,5 C -0,5 C 0,0 km/h
12.12.2016 22:00 -1,3 C 86 % 1023,9 hPa 0,0 l/m 0,0 km/h W -3,3 C -1,3 C 0,0 km/h
12.12.2016 23:00 -1,5 C 86 % 1024,1 hPa 0,0 l/m 0,0 km/h W -3,5 C -1,5 C 0,0 km/h
13.12.2016 00:00 -2,1 C 86 % 1024,1 hPa 0,0 l/m 0,0 km/h W -4,1 C -2,1 C 0,0 km/h
13.12.2016 01:00 -2,4 C 86 % 1024,0 hPa 0,0 l/m 0,0 km/h W -4,4 C -2,4 C 0,0 km/h
13.12.2016 02:00 -2,4 C 85 % 1024,1 hPa 0,0 l/m 0,0 km/h W -4,6 C -2,4 C 0,0 km/h
13.12.2016 03:00 -2,6 C 85 % 1023,8 hPa 0,0 l/m 0,0 km/h W -4,8 C -2,6 C 0,0 km/h
13.12.2016 04:00 -2,7 C 85 % 1023,8 hPa 0,0 l/m 0,0 km/h W -4,9 C -2,7 C 0,0 km/h
13.12.2016 05:00 -2,6 C 85 % 1023,4 hPa 0,0 l/m 0,0 km/h W -4,8 C -2,6 C 0,0 km/h
13.12.2016 06:00 -3,6 C 86 % 1023,9 hPa 0,0 l/m 0,0 km/h W -5,6 C -3,6 C 0,0 km/h
13.12.2016 07:00 -3,7 C 86 % 1024,3 hPa 0,0 l/m 0,0 km/h SO -5,7 C -3,7 C 0,0 km/h
13.12.2016 08:00 -3,6 C 85 % 1024,4 hPa 0,0 l/m 0,0 km/h SO -5,7 C -3,6 C 0,0 km/h
13.12.2016 09:00 0,3 C 81 % 1024,4 hPa 0,0 l/m 0,0 km/h SO -2,6 C 0,3 C 0,0 km/h
13.12.2016 10:00 0,1 C 83 % 1024,7 hPa 0,0 l/m 0,0 km/h O-SO -2,4 C 0,1 C 0,0 km/h
13.12.2016 11:00 1,6 C 82 % 1024,5 hPa 0,0 l/m 0,0 km/h W-NW -1,1 C 1,6 C 0,0 km/h
13.12.2016 12:00 1,9 C 83 % 1024,3 hPa 0,0 l/m 0,0 km/h NW -0,7 C 1,9 C 0,0 km/h
13.12.2016 13:00 3,1 C 86 % 1023,9 hPa 0,0 l/m 0,0 km/h W 1,0 C 3,1 C 0,0 km/h
13.12.2016 14:00 4,4 C 83 % 1023,6 hPa 0,0 l/m 0,0 km/h W-SW 1,8 C 4,4 C 0,0 km/h
13.12.2016 15:00 1,9 C 86 % 1023,4 hPa 0,0 l/m 0,0 km/h W-SW -0,2 C 1,9 C 0,0 km/h
13.12.2016 16:00 1,6 C 86 % 1023,4 hPa 0,0 l/m 0,0 km/h S -0,5 C 1,6 C 0,0 km/h
13.12.2016 17:00 0,2 C 86 % 1023,5 hPa 0,0 l/m 0,0 km/h S-SO -1,9 C 0,2 C 0,0 km/h
13.12.2016 18:00 -0,2 C 85 % 1023,3 hPa 0,0 l/m 0,0 km/h S-SO -2,4 C -0,2 C 0,0 km/h
13.12.2016 19:00 -0,1 C 85 % 1023,5 hPa 0,0 l/m 0,0 km/h S-SO -2,3 C -0,1 C 0,0 km/h
13.12.2016 20:00 0,6 C 85 % 1023,7 hPa 0,0 l/m 0,0 km/h S-SO -1,6 C 0,6 C 0,0 km/h
13.12.2016 21:00 0,9 C 84 % 1023,3 hPa 0,0 l/m 0,0 km/h O-SO -1,5 C 0,9 C 0,0 km/h
13.12.2016 22:00 1,3 C 84 % 1023,4 hPa 0,0 l/m 0,0 km/h W -1,1 C 1,3 C 0,0 km/h
13.12.2016 23:00 1,4 C 83 % 1023,4 hPa 0,0 l/m 0,0 km/h W -1,2 C 1,4 C 0,0 km/h
14.12.2016 00:00 1,6 C 83 % 1023,2 hPa 0,0 l/m 0,0 km/h W -1,0 C 1,6 C 0,0 km/h
14.12.2016 01:00 1,5 C 83 % 1022,5 hPa 0,0 l/m 0,0 km/h W -1,1 C 1,5 C 0,0 km/h
14.12.2016 02:00 1,6 C 83 % 1022,6 hPa 0,0 l/m 0,0 km/h W -1,0 C 1,6 C 0,0 km/h
14.12.2016 03:00 1,4 C 83 % 1022,4 hPa 0,0 l/m 0,0 km/h W -1,2 C 1,4 C 0,0 km/h
14.12.2016 04:00 1,6 C 83 % 1022,0 hPa 0,0 l/m 0,0 km/h W -1,0 C 1,6 C 0,0 km/h
14.12.2016 05:00 2,1 C 82 % 1021,4 hPa 0,0 l/m 0,0 km/h W -0,6 C 2,1 C 0,0 km/h
14.12.2016 06:00 1,8 C 83 % 1021,5 hPa 0,0 l/m 0,0 km/h W -0,8 C 1,8 C 0,0 km/h
14.12.2016 07:00 0,4 C 83 % 1021,7 hPa 0,0 l/m 0,0 km/h W -2,1 C 0,4 C 0,0 km/h
14.12.2016 08:00 0,7 C 82 % 1021,9 hPa 0,0 l/m 0,0 km/h W -2,0 C 0,7 C 0,0 km/h
14.12.2016 09:00 1,5 C 82 % 1022,2 hPa 0,0 l/m 0,0 km/h W -1,2 C 1,5 C 0,0 km/h
14.12.2016 10:00 3,3 C 80 % 1022,4 hPa 0,0 l/m 0,0 km/h NW 0,2 C 3,3 C 0,0 km/h
14.12.2016 11:00 4,7 C 83 % 1022,5 hPa 0,0 l/m 0,0 km/h W-NW 2,1 C 4,7 C 0,0 km/h
14.12.2016 12:00 5,8 C 86 % 1022,3 hPa 0,0 l/m 0,0 km/h W-NW 3,6 C 5,8 C 0,0 km/h
14.12.2016 13:00 7,1 C 85 % 1021,6 hPa 0,0 l/m 0,0 km/h W-NW 4,8 C 7,1 C 0,0 km/h
14.12.2016 14:00 10,7 C 77 % 1021,4 hPa 0,0 l/m 0,0 km/h W-NW 6,8 C 10,7 C 0,0 km/h
14.12.2016 15:00 13,2 C 66 % 1020,9 hPa 0,0 l/m 0,0 km/h W-NW 7,0 C 13,2 C 0,0 km/h
14.12.2016 16:00 11,8 C 64 % 1021,2 hPa 0,0 l/m 0,0 km/h W-NW 5,2 C 11,8 C 0,0 km/h
14.12.2016 17:00 3,4 C 79 % 1021,5 hPa 0,0 l/m 0,0 km/h W-NW 0,1 C 3,4 C 0,0 km/h
14.12.2016 18:00 1,8 C 84 % 1021,6 hPa 0,0 l/m 0,0 km/h W-NW -0,6 C 1,8 C 0,0 km/h
14.12.2016 19:00 0,6 C 85 % 1021,8 hPa 0,0 l/m 0,0 km/h W-NW -1,6 C 0,6 C 0,0 km/h
14.12.2016 20:00 0,1 C 86 % 1022,1 hPa 0,0 l/m 0,0 km/h W-NW -2,0 C 0,1 C 0,0 km/h
14.12.2016 21:00 -0,2 C 86 % 1022,3 hPa 0,0 l/m 0,0 km/h W-NW -2,3 C -0,2 C 0,0 km/h
14.12.2016 22:00 -0,8 C 86 % 1022,8 hPa 0,0 l/m 0,0 km/h W-NW -2,8 C -0,8 C 0,0 km/h
14.12.2016 23:00 -1,1 C 85 % 1022,9 hPa 0,0 l/m 0,0 km/h O-NO -3,3 C -1,1 C 0,0 km/h
15.12.2016 00:00 -1,0 C 85 % 1022,7 hPa 0,0 l/m 0,0 km/h O-NO -3,2 C -1,0 C 0,0 km/h
15.12.2016 01:00 -1,3 C 85 % 1022,9 hPa 0,0 l/m 0,0 km/h O-NO -3,5 C -1,3 C 0,0 km/h
15.12.2016 02:00 -1,6 C 85 % 1023,2 hPa 0,0 l/m 0,0 km/h O-NO -3,8 C -1,6 C 0,0 km/h
15.12.2016 03:00 -1,9 C 85 % 1023,2 hPa 0,0 l/m 0,0 km/h O-NO -4,1 C -1,9 C 0,0 km/h
15.12.2016 04:00 -2,1 C 84 % 1023,2 hPa 0,0 l/m 0,0 km/h O-NO -4,4 C -2,1 C 0,0 km/h
15.12.2016 05:00 -2,2 C 84 % 1023,0 hPa 0,0 l/m 0,0 km/h O-NO -4,5 C -2,2 C 0,0 km/h
15.12.2016 06:00 -2,6 C 84 % 1023,3 hPa 0,0 l/m 0,0 km/h O-NO -4,9 C -2,6 C 0,0 km/h
15.12.2016 07:00 -1,8 C 84 % 1023,7 hPa 0,0 l/m 0,0 km/h O-NO -4,1 C -1,8 C 0,0 km/h
15.12.2016 08:00 -1,1 C 83 % 1023,8 hPa 0,0 l/m 0,0 km/h O-NO -3,6 C -1,1 C 0,0 km/h
15.12.2016 09:00 -0,4 C 83 % 1023,9 hPa 0,0 l/m 0,0 km/h O-NO -2,9 C -0,4 C 0,0 km/h
15.12.2016 10:00 0,1 C 82 % 1024,0 hPa 0,0 l/m 0,0 km/h NO -2,6 C 0,1 C 0,0 km/h
15.12.2016 11:00 0,4 C 82 % 1023,9 hPa 0,0 l/m 0,0 km/h NO -2,3 C 0,4 C 0,0 km/h
15.12.2016 12:00 1,1 C 80 % 1023,7 hPa 0,0 l/m 0,0 km/h NO -2,0 C 1,1 C 0,0 km/h
15.12.2016 13:00 1,4 C 81 % 1023,2 hPa 0,0 l/m 0,0 km/h N -1,5 C 1,4 C 0,0 km/h
15.12.2016 14:00 1,2 C 82 % 1022,7 hPa 0,0 l/m 0,0 km/h N -1,5 C 1,2 C 0,0 km/h
15.12.2016 15:00 0,9 C 82 % 1022,9 hPa 0,0 l/m 0,0 km/h N-NW -1,8 C 0,9 C 0,0 km/h
15.12.2016 16:00 0,4 C 82 % 1023,2 hPa 0,0 l/m 0,0 km/h N-NW -2,3 C 0,4 C 0,0 km/h
15.12.2016 17:00 0,2 C 82 % 1023,2 hPa 0,0 l/m 0,0 km/h N-NO -2,5 C 0,2 C 0,0 km/h
15.12.2016 18:00 -0,1 C 81 % 1023,3 hPa 0,0 l/m 0,0 km/h N-NO -3,0 C -0,1 C 0,0 km/h
15.12.2016 19:00 -0,2 C 81 % 1023,4 hPa 0,0 l/m 0,0 km/h N-NO -3,1 C -0,2 C 0,0 km/h
15.12.2016 20:00 -0,4 C 80 % 1023,3 hPa 0,0 l/m 0,0 km/h N-NO -3,4 C -0,4 C 0,0 km/h
15.12.2016 21:00 -0,5 C 80 % 1023,5 hPa 0,0 l/m 0,0 km/h N-NO -3,5 C -0,5 C 0,0 km/h
15.12.2016 22:00 -0,6 C 80 % 1023,5 hPa 0,0 l/m 0,0 km/h N-NO -3,6 C -0,6 C 0,0 km/h
15.12.2016 23:00 -0,7 C 80 % 1023,7 hPa 0,0 l/m 0,0 km/h N-NO -3,7 C -0,7 C 0,0 km/h
16.12.2016 00:00 -0,6 C 79 % 1023,7 hPa 0,0 l/m 0,0 km/h N-NO -3,8 C -0,6 C 0,0 km/h
16.12.2016 01:00 -0,8 C 79 % 1023,7 hPa 0,0 l/m 0,0 km/h N-NO -4,0 C -0,8 C 0,0 km/h
16.12.2016 02:00 -0,9 C 79 % 1023,7 hPa 0,0 l/m 0,0 km/h N-NO -4,1 C -0,9 C 0,0 km/h
16.12.2016 03:00 -1,0 C 79 % 1024,0 hPa 0,0 l/m 0,0 km/h N-NO -4,2 C -1,0 C 0,0 km/h
16.12.2016 04:00 -1,1 C 79 % 1023,9 hPa 0,0 l/m 0,0 km/h N-NO -4,3 C -1,1 C 0,0 km/h
16.12.2016 05:00 -1,3 C 79 % 1024,2 hPa 0,0 l/m 0,0 km/h N-NO -4,5 C -1,3 C 0,0 km/h
16.12.2016 06:00 -1,6 C 79 % 1024,6 hPa 0,0 l/m 0,0 km/h N-NO -4,8 C -1,6 C 0,0 km/h
16.12.2016 07:00 -1,8 C 79 % 1025,1 hPa 0,0 l/m 0,0 km/h N-NO -4,9 C -1,8 C 0,0 km/h
16.12.2016 08:00 -1,9 C 79 % 1025,5 hPa 0,0 l/m 0,0 km/h N-NO -5,0 C -1,9 C 0,0 km/h
16.12.2016 09:00 -1,6 C 78 % 1026,0 hPa 0,0 l/m 0,0 km/h N-NO -4,9 C -1,6 C 0,0 km/h
16.12.2016 10:00 -1,1 C 78 % 1026,4 hPa 0,0 l/m 0,0 km/h N-NO -4,4 C -1,1 C 0,0 km/h
16.12.2016 11:00 -0,4 C 76 % 1026,7 hPa 0,0 l/m 0,0 km/h N-NW -4,1 C -0,4 C 0,0 km/h
16.12.2016 12:00 -0,1 C 76 % 1026,7 hPa 0,0 l/m 0,0 km/h N-NW -3,8 C -0,1 C 0,0 km/h
16.12.2016 13:00 0,1 C 77 % 1026,7 hPa 0,0 l/m 0,0 km/h N-NW -3,4 C 0,1 C 0,0 km/h
16.12.2016 14:00 0,1 C 77 % 1026,6 hPa 0,0 l/m 0,0 km/h N-NW -3,4 C 0,1 C 0,0 km/h
16.12.2016 15:00 -0,1 C 77 % 1027,4 hPa 0,0 l/m 0,0 km/h N-NW -3,6 C -0,1 C 0,0 km/h
16.12.2016 16:00 -0,2 C 77 % 1027,8 hPa 0,0 l/m 0,0 km/h N-NW -3,7 C -0,2 C 0,0 km/h
16.12.2016 17:00 -0,4 C 77 % 1028,9 hPa 0,0 l/m 0,0 km/h N-NW -3,9 C -0,4 C 0,0 km/h
16.12.2016 18:00 -0,5 C 77 % 1029,6 hPa 0,0 l/m 0,0 km/h N-NW -4,0 C -0,5 C 0,0 km/h
16.12.2016 19:00 -0,7 C 77 % 1030,0 hPa 0,0 l/m 0,0 km/h N-NW -4,2 C -0,7 C 0,0 km/h
16.12.2016 20:00 -0,7 C 77 % 1030,7 hPa 0,0 l/m 0,0 km/h N-NW -4,2 C -0,7 C 0,0 km/h
16.12.2016 21:00 -0,7 C 77 % 1031,1 hPa 0,0 l/m 0,0 km/h N-NW -4,2 C -0,7 C 0,0 km/h
16.12.2016 22:00 -0,7 C 77 % 1031,5 hPa 0,0 l/m 0,0 km/h N-NW -4,2 C -0,7 C 0,0 km/h
16.12.2016 23:00 -0,7 C 77 % 1032,1 hPa 0,0 l/m 0,0 km/h N-NW -4,2 C -0,7 C 0,0 km/h
17.12.2016 00:00 -0,9 C 77 % 1032,2 hPa 0,0 l/m 0,0 km/h N-NW -4,4 C -0,9 C 0,0 km/h
17.12.2016 01:00 -0,9 C 76 % 1032,7 hPa 0,0 l/m 0,0 km/h O-SO -4,6 C -0,9 C 0,0 km/h
17.12.2016 02:00 -1,2 C 77 % 1032,6 hPa 0,0 l/m 0,0 km/h O-SO -4,7 C -1,2 C 0,0 km/h
17.12.2016 03:00 -1,3 C 76 % 1033,1 hPa 0,0 l/m 0,0 km/h O-SO -5,0 C -1,3 C 0,0 km/h
17.12.2016 04:00 -1,5 C 76 % 1033,1 hPa 0,0 l/m 0,0 km/h O-SO -5,2 C -1,5 C 0,0 km/h
17.12.2016 05:00 -1,7 C 77 % 1033,1 hPa 0,0 l/m 0,0 km/h O-SO -5,2 C -1,7 C 0,0 km/h
17.12.2016 06:00 -1,9 C 77 % 1033,5 hPa 0,0 l/m 0,0 km/h O-SO -5,4 C -1,9 C 0,0 km/h
17.12.2016 07:00 -2,4 C 78 % 1033,8 hPa 0,0 l/m 0,0 km/h O-SO -5,7 C -2,4 C 0,0 km/h
17.12.2016 08:00 -2,2 C 78 % 1034,5 hPa 0,0 l/m 0,0 km/h O-SO -5,5 C -2,2 C 0,0 km/h
17.12.2016 09:00 -1,9 C 78 % 1034,8 hPa 0,0 l/m 0,0 km/h O-SO -5,2 C -1,9 C 0,0 km/h
17.12.2016 10:00 -1,0 C 77 % 1035,3 hPa 0,0 l/m 0,0 km/h O-SO -4,5 C -1,0 C 0,0 km/h
17.12.2016 11:00 -0,4 C 77 % 1035,6 hPa 0,0 l/m 0,0 km/h O-SO -3,9 C -0,4 C 0,0 km/h
17.12.2016 12:00 0,9 C 78 % 1035,1 hPa 0,0 l/m 0,0 km/h O-SO -2,5 C 0,9 C 0,0 km/h
17.12.2016 13:00 0,7 C 80 % 1035,2 hPa 0,0 l/m 0,0 km/h O-SO -2,3 C 0,7 C 0,0 km/h
17.12.2016 14:00 1,4 C 83 % 1034,8 hPa 0,0 l/m 0,0 km/h O -1,2 C 1,4 C 0,0 km/h
17.12.2016 15:00 1,1 C 83 % 1034,9 hPa 0,0 l/m 0,0 km/h O -1,5 C 1,1 C 0,0 km/h
17.12.2016 16:00 0,9 C 83 % 1034,9 hPa 0,0 l/m 0,0 km/h O -1,7 C 0,9 C 0,0 km/h
17.12.2016 17:00 0,6 C 83 % 1035,3 hPa 0,0 l/m 0,0 km/h O-SO -1,9 C 0,6 C 0,0 km/h
17.12.2016 18:00 0,9 C 82 % 1035,4 hPa 0,0 l/m 0,0 km/h O -1,8 C 0,9 C 0,0 km/h
17.12.2016 19:00 0,7 C 82 % 1035,4 hPa 0,0 l/m 0,0 km/h O-NO -2,0 C 0,7 C 0,0 km/h
17.12.2016 20:00 0,9 C 81 % 1035,8 hPa 0,0 l/m 0,0 km/h O-NO -2,0 C 0,9 C 0,0 km/h
17.12.2016 21:00 0,6 C 81 % 1035,6 hPa 0,0 l/m 0,0 km/h O-NO -2,3 C 0,6 C 0,0 km/h
17.12.2016 22:00 0,5 C 81 % 1035,7 hPa 0,0 l/m 0,0 km/h O-NO -2,4 C 0,5 C 0,0 km/h
17.12.2016 23:00 0,3 C 80 % 1035,5 hPa 0,0 l/m 0,0 km/h O-NO -2,7 C 0,3 C 0,0 km/h
18.12.2016 00:00 0,4 C 80 % 1035,6 hPa 0,0 l/m 0,0 km/h O-NO -2,6 C 0,4 C 0,0 km/h
18.12.2016 01:00 0,5 C 79 % 1035,2 hPa 0,0 l/m 0,0 km/h O -2,7 C 0,5 C 0,0 km/h
18.12.2016 02:00 0,5 C 79 % 1034,9 hPa 0,0 l/m 0,0 km/h O -2,7 C 0,5 C 0,0 km/h
18.12.2016 03:00 0,4 C 79 % 1034,6 hPa 0,0 l/m 0,0 km/h O -2,8 C 0,4 C 0,0 km/h
18.12.2016 04:00 0,4 C 79 % 1034,8 hPa 0,0 l/m 0,0 km/h O -2,8 C 0,4 C 0,0 km/h
18.12.2016 05:00 0,4 C 78 % 1034,3 hPa 0,0 l/m 0,0 km/h O -3,0 C 0,4 C 0,0 km/h
18.12.2016 06:00 0,5 C 78 % 1034,0 hPa 0,0 l/m 0,0 km/h O -2,9 C 0,5 C 0,0 km/h
18.12.2016 07:00 0,6 C 78 % 1034,2 hPa 0,0 l/m 0,0 km/h O -2,8 C 0,6 C 0,0 km/h
18.12.2016 08:00 0,7 C 77 % 1034,2 hPa 0,0 l/m 0,0 km/h O -2,9 C 0,7 C 0,0 km/h
18.12.2016 09:00 0,9 C 76 % 1034,0 hPa 0,0 l/m 0,0 km/h O -2,8 C 0,9 C 0,0 km/h
18.12.2016 10:00 1,3 C 76 % 1034,2 hPa 0,0 l/m 0,0 km/h O -2,5 C 1,3 C 0,0 km/h
18.12.2016 11:00 1,6 C 75 % 1033,8 hPa 0,0 l/m 0,0 km/h O -2,3 C 1,6 C 0,0 km/h
18.12.2016 12:00 2,2 C 73 % 1033,2 hPa 0,0 l/m 0,0 km/h O -2,1 C 2,2 C 0,0 km/h
18.12.2016 13:00 3,3 C 75 % 1032,4 hPa 0,0 l/m 0,0 km/h O -0,7 C 3,3 C 0,0 km/h
18.12.2016 14:00 2,9 C 76 % 1031,9 hPa 0,0 l/m 0,0 km/h O-SO -0,9 C 2,9 C 0,0 km/h
18.12.2016 15:00 2,6 C 77 % 1031,4 hPa 0,0 l/m 0,0 km/h O-SO -1,0 C 2,6 C 0,0 km/h
18.12.2016 16:00 2,4 C 77 % 1031,3 hPa 0,0 l/m 0,0 km/h O-SO -1,2 C 2,4 C 0,0 km/h
18.12.2016 17:00 2,3 C 78 % 1030,6 hPa 0,0 l/m 0,0 km/h O-SO -1,1 C 2,3 C 0,0 km/h
18.12.2016 18:00 2,2 C 78 % 1029,4 hPa 0,0 l/m 0,0 km/h O-SO -1,2 C 2,2 C 0,0 km/h
18.12.2016 19:00 2,2 C 77 % 1029,4 hPa 0,0 l/m 0,0 km/h O-SO -1,4 C 2,2 C 0,0 km/h
18.12.2016 20:00 2,2 C 77 % 1029,0 hPa 0,0 l/m 0,0 km/h O-SO -1,4 C 2,2 C 0,0 km/h
18.12.2016 21:00 2,2 C 76 % 1028,5 hPa 0,0 l/m 0,0 km/h O-SO -1,6 C 2,2 C 0,0 km/h
18.12.2016 22:00 2,2 C 76 % 1028,2 hPa 0,0 l/m 0,0 km/h O-SO -1,6 C 2,2 C 0,0 km/h
18.12.2016 23:00 2,2 C 76 % 1027,7 hPa 0,0 l/m 0,0 km/h O-SO -1,6 C 2,2 C 0,0 km/h
Min-Datum _ 13.12.16 12.12.16 14.12.16 - 12.12.16 - 13.12.16 13.12.16 12.12.16
_ Min-Zeit 07:10 15:10 15:10 - 00:10 - 08:10 07:10 00:10
Minimum _ -3,7 C 64 % 1020,9 hPa - 0,0 km/h - -5,7 C -3,7 C 0,0 km/h
Max-Datum _ 14.12.16 12.12.16 17.12.16 12.12.16 12.12.16 - 12.12.16 14.12.16 12.12.16
_ Max-Zeit 15:10 20:10 20:10 00:10 14:10 - 11:10 15:10 14:10
Maximum _ 13,2 C 86 % 1035,8 hPa 0,0 l/m 2,6 km/h
W-SW
- 7,3 C 13,2 C 1,4 km/h
W-SW
Durchschnitt _ 0,9 C 80 % 1026,7 hPa #0,0 l/m 0,0 km/h O-NO -2,1 C 0,9 C 0,0 km/h
www.sexauwetter.de